createdAt,value
2023-05-12T00:06:47.798Z,82.78
2023-05-12T00:16:50.771Z,82.88
2023-05-12T00:26:51.193Z,82.96
2023-05-12T00:36:51.356Z,83.02
2023-05-12T00:46:51.704Z,83.14
2023-05-12T00:56:52.872Z,83.17
2023-05-12T01:06:53.291Z,83.21
2023-05-12T01:16:53.499Z,83.29
2023-05-12T01:26:53.409Z,83.36
2023-05-12T01:36:54.029Z,83.56
2023-05-12T01:46:54.691Z,83.67
2023-05-12T01:56:54.931Z,83.83
2023-05-12T02:06:55.447Z,83.95
2023-05-12T02:16:57.310Z,84.08
2023-05-12T02:26:57.388Z,84.23
2023-05-12T02:36:57.605Z,84.32
2023-05-12T02:46:58.054Z,84.37
2023-05-12T02:56:59.488Z,84.56
2023-05-12T03:06:59.515Z,84.67
2023-05-12T03:16:59.981Z,84.73
2023-05-12T03:27:01.369Z,84.82
2023-05-12T03:37:01.638Z,84.91
2023-05-12T03:47:01.741Z,84.98
2023-05-12T03:57:01.698Z,84.98
2023-05-12T04:07:01.640Z,85.01
2023-05-12T04:17:01.652Z,84.97
2023-05-12T04:27:01.791Z,84.75
2023-05-12T04:37:01.659Z,84.57
2023-05-12T04:47:01.854Z,84.32
2023-05-12T04:57:01.688Z,83.94
2023-05-12T05:07:03.571Z,83.78
2023-05-12T05:17:03.733Z,83.28
2023-05-12T05:27:03.855Z,82.79
2023-05-12T05:37:03.839Z,81.76
2023-05-12T05:47:03.836Z,80.65
2023-05-12T05:57:04.240Z,79.61
2023-05-12T06:07:24.130Z,78.12
2023-05-12T06:17:24.820Z,78.02
2023-05-12T06:27:24.777Z,76.49
2023-05-12T06:37:24.699Z,74.52
2023-05-12T06:47:24.945Z,72.57
2023-05-12T06:57:24.783Z,71.49
2023-05-12T07:07:24.860Z,70.33
2023-05-12T07:17:24.845Z,69.32
2023-05-12T07:27:24.784Z,67.54
2023-05-12T07:37:24.975Z,66.54
2023-05-12T07:47:24.814Z,65.94
2023-05-12T07:57:25.031Z,65.85
2023-05-12T08:07:24.898Z,65.93
2023-05-12T08:17:28.483Z,66.27
2023-05-12T08:27:26.926Z,66.25
2023-05-12T08:37:26.933Z,65.50
2023-05-12T08:47:27.032Z,63.46
2023-05-12T08:57:29.454Z,58.28
2023-05-12T09:07:28.987Z,55.10
2023-05-12T09:17:28.969Z,53.33
2023-05-12T09:27:29.015Z,47.72
2023-05-12T09:37:48.349Z,38.25
2023-05-12T09:47:48.050Z,36.01
2023-05-12T09:57:48.166Z,36.44
2023-05-12T10:07:48.047Z,36.23
2023-05-12T10:17:48.186Z,35.97
2023-05-12T10:27:48.090Z,32.04
2023-05-12T10:37:48.177Z,33.75
2023-05-12T10:47:48.156Z,33.80
2023-05-12T10:57:48.403Z,36.17
2023-05-12T11:07:50.109Z,39.22
2023-05-12T11:17:51.285Z,38.33
2023-05-12T11:27:51.292Z,38.29
2023-05-12T11:37:51.299Z,38.89
2023-05-12T11:47:51.548Z,39.44
2023-05-12T11:57:52.178Z,39.23
2023-05-12T12:07:52.216Z,39.09
2023-05-12T12:17:52.452Z,39.26
2023-05-12T12:27:52.759Z,38.99
2023-05-12T12:37:53.428Z,37.65
2023-05-12T12:47:54.300Z,39.87
2023-05-12T12:57:54.394Z,41.05
2023-05-12T13:07:55.145Z,45.15
2023-05-12T13:17:55.523Z,46.92
2023-05-12T13:27:55.453Z,47.31
2023-05-12T13:37:56.323Z,47.53
2023-05-12T13:47:56.945Z,47.87
2023-05-12T13:57:56.789Z,48.89
2023-05-12T14:07:57.445Z,48.58
2023-05-12T14:17:58.073Z,48.73
2023-05-12T14:27:58.634Z,48.71
2023-05-12T14:37:58.573Z,49.93
2023-05-12T14:47:58.781Z,48.82
2023-05-12T14:57:58.514Z,45.01
2023-05-12T15:07:58.508Z,44.52
2023-05-12T15:17:58.645Z,43.87
2023-05-12T15:27:58.548Z,43.33
2023-05-12T15:37:58.827Z,43.63
2023-05-12T15:47:58.632Z,46.17
2023-05-12T15:57:58.658Z,56.95
2023-05-12T16:07:58.626Z,60.69
2023-05-12T16:17:58.707Z,62.91
2023-05-12T16:27:58.592Z,63.94
2023-05-12T16:37:58.619Z,65.80
2023-05-12T16:47:58.697Z,66.92
2023-05-12T16:57:58.681Z,66.67
2023-05-12T17:07:58.801Z,66.97
2023-05-12T17:17:58.767Z,66.47
2023-05-12T17:27:58.756Z,66.45
2023-05-12T17:37:58.757Z,66.27
2023-05-12T17:47:58.811Z,66.17
2023-05-12T17:57:58.839Z,66.56
2023-05-12T18:07:58.771Z,67.29
2023-05-12T18:18:00.055Z,67.98
2023-05-12T18:28:00.305Z,68.68
2023-05-12T18:38:01.228Z,69.45
2023-05-12T18:48:21.190Z,70.11
2023-05-12T18:58:21.019Z,70.92
2023-05-12T19:08:20.903Z,71.56
2023-05-12T19:18:21.170Z,72.12
2023-05-12T19:28:21.947Z,72.60
2023-05-12T19:38:22.249Z,73.10
2023-05-12T19:48:22.901Z,73.68
2023-05-12T19:58:22.883Z,74.23
2023-05-12T20:08:22.969Z,74.77
2023-05-12T20:18:23.233Z,75.13
2023-05-12T20:28:24.218Z,75.55
2023-05-12T20:38:24.417Z,75.90
2023-05-12T20:48:24.983Z,76.14
2023-05-12T20:58:25.073Z,76.42
2023-05-12T21:08:25.040Z,76.74
2023-05-12T21:18:25.006Z,77.04
2023-05-12T21:28:25.029Z,77.23
2023-05-12T21:38:25.084Z,77.50
2023-05-12T21:48:25.119Z,77.72
2023-05-12T21:58:25.259Z,78.04
2023-05-12T22:08:25.151Z,78.34
2023-05-12T22:18:25.131Z,78.59
2023-05-12T22:28:25.097Z,78.69
2023-05-12T22:38:25.102Z,78.85
2023-05-12T22:48:25.118Z,79.02
2023-05-12T22:58:25.124Z,79.19
2023-05-12T23:08:25.248Z,79.36
2023-05-12T23:18:25.178Z,79.48
2023-05-12T23:28:25.114Z,79.67
2023-05-12T23:38:25.172Z,79.81
2023-05-12T23:48:25.583Z,79.95
2023-05-12T23:58:26.292Z,80.02
